sensor_id;sensor_type;location;lat;lon;timestamp;pressure;altitude;pressure_sealevel;temperature;humidity
43707;BME280;61348;53.392;-6.248;2023-08-17T00:02:05;101431.22;;;14.95;87.17
43707;BME280;61348;53.392;-6.248;2023-08-17T00:04:32;101437.94;;;14.94;87.36
43707;BME280;61348;53.392;-6.248;2023-08-17T00:06:59;101436.31;;;14.93;87.26
43707;BME280;61348;53.392;-6.248;2023-08-17T00:09:26;101430.72;;;14.93;87.31
43707;BME280;61348;53.392;-6.248;2023-08-17T00:11:53;101434.72;;;14.92;87.49
43707;BME280;61348;53.392;-6.248;2023-08-17T00:14:20;101434.34;;;14.94;87.32
43707;BME280;61348;53.392;-6.248;2023-08-17T00:16:49;101440.28;;;14.92;87.75
43707;BME280;61348;53.392;-6.248;2023-08-17T00:19:16;101438.56;;;14.88;87.37
43707;BME280;61348;53.392;-6.248;2023-08-17T00:21:44;101433.78;;;14.88;87.54
43707;BME280;61348;53.392;-6.248;2023-08-17T00:24:11;101432.91;;;14.84;87.74
43707;BME280;61348;53.392;-6.248;2023-08-17T00:26:38;101431.25;;;14.83;87.70
43707;BME280;61348;53.392;-6.248;2023-08-17T00:29:05;101427.22;;;14.81;87.81
43707;BME280;61348;53.392;-6.248;2023-08-17T00:31:32;101437.91;;;14.79;87.79
43707;BME280;61348;53.392;-6.248;2023-08-17T00:33:58;101425.97;;;14.78;87.94
43707;BME280;61348;53.392;-6.248;2023-08-17T00:36:25;101429.44;;;14.75;87.93
43707;BME280;61348;53.392;-6.248;2023-08-17T00:38:52;101432.94;;;14.72;87.82
43707;BME280;61348;53.392;-6.248;2023-08-17T00:41:19;101428.91;;;14.70;87.99
43707;BME280;61348;53.392;-6.248;2023-08-17T00:43:46;101428.13;;;14.69;88.03
43707;BME280;61348;53.392;-6.248;2023-08-17T00:46:14;101421.72;;;14.69;87.88
43707;BME280;61348;53.392;-6.248;2023-08-17T00:48:42;101418.81;;;14.65;88.11
43707;BME280;61348;53.392;-6.248;2023-08-17T00:51:09;101411.63;;;14.64;88.15
43707;BME280;61348;53.392;-6.248;2023-08-17T00:53:36;101416.75;;;14.62;88.29
43707;BME280;61348;53.392;-6.248;2023-08-17T00:56:04;101415.59;;;14.63;88.18
43707;BME280;61348;53.392;-6.248;2023-08-17T00:58:31;101411.63;;;14.64;88.35
43707;BME280;61348;53.392;-6.248;2023-08-17T01:01:01;101413.97;;;14.62;88.12
43707;BME280;61348;53.392;-6.248;2023-08-17T01:03:29;101409.91;;;14.59;88.43
43707;BME280;61348;53.392;-6.248;2023-08-17T01:05:59;101412.25;;;14.57;88.21
43707;BME280;61348;53.392;-6.248;2023-08-17T01:08:26;101398.69;;;14.56;88.24
43707;BME280;61348;53.392;-6.248;2023-08-17T01:11:01;101402.19;;;14.53;88.47
43707;BME280;61348;53.392;-6.248;2023-08-17T01:13:50;101401.69;;;14.51;88.56
43707;BME280;61348;53.392;-6.248;2023-08-17T01:16:27;101389.66;;;14.47;88.54
43707;BME280;61348;53.392;-6.248;2023-08-17T01:18:57;101380.84;;;14.45;88.50
43707;BME280;61348;53.392;-6.248;2023-08-17T01:21:31;101382.00;;;14.44;88.58
43707;BME280;61348;53.392;-6.248;2023-08-17T01:24:03;101382.38;;;14.42;88.49
43707;BME280;61348;53.392;-6.248;2023-08-17T01:26:31;101382.72;;;14.41;88.50
43707;BME280;61348;53.392;-6.248;2023-08-17T01:28:58;101379.50;;;14.39;88.57
43707;BME280;61348;53.392;-6.248;2023-08-17T01:31:30;101383.09;;;14.39;88.62
43707;BME280;61348;53.392;-6.248;2023-08-17T01:34:05;101386.22;;;14.38;88.90
43707;BME280;61348;53.392;-6.248;2023-08-17T01:36:43;101383.78;;;14.36;88.78
43707;BME280;61348;53.392;-6.248;2023-08-17T01:39:14;101381.38;;;14.35;88.82
43707;BME280;61348;53.392;-6.248;2023-08-17T01:41:43;101381.38;;;14.35;89.03
43707;BME280;61348;53.392;-6.248;2023-08-17T01:44:12;101376.50;;;14.32;89.07
43707;BME280;61348;53.392;-6.248;2023-08-17T01:46:39;101373.22;;;14.30;89.25
43707;BME280;61348;53.392;-6.248;2023-08-17T01:49:06;101382.75;;;14.29;89.47
43707;BME280;61348;53.392;-6.248;2023-08-17T01:51:33;101376.00;;;14.30;89.55
43707;BME280;61348;53.392;-6.248;2023-08-17T01:53:59;101376.00;;;14.30;89.53
43707;BME280;61348;53.392;-6.248;2023-08-17T01:56:26;101373.22;;;14.30;89.77
43707;BME280;61348;53.392;-6.248;2023-08-17T01:58:53;101375.56;;;14.28;89.98
43707;BME280;61348;53.392;-6.248;2023-08-17T02:01:20;101372.78;;;14.28;89.92
43707;BME280;61348;53.392;-6.248;2023-08-17T02:03:47;101373.94;;;14.27;90.09
43707;BME280;61348;53.392;-6.248;2023-08-17T02:06:13;101375.56;;;14.28;90.26
43707;BME280;61348;53.392;-6.248;2023-08-17T02:08:41;101369.53;;;14.26;90.33
43707;BME280;61348;53.392;-6.248;2023-08-17T02:11:08;101365.13;;;14.25;90.30
43707;BME280;61348;53.392;-6.248;2023-08-17T02:13:36;101367.44;;;14.23;90.54
43707;BME280;61348;53.392;-6.248;2023-08-17T02:16:06;101367.44;;;14.23;90.74
43707;BME280;61348;53.392;-6.248;2023-08-17T02:18:33;101368.28;;;14.23;90.73
43707;BME280;61348;53.392;-6.248;2023-08-17T02:21:01;101363.03;;;14.22;90.77
43707;BME280;61348;53.392;-6.248;2023-08-17T02:23:28;101368.59;;;14.22;90.86
43707;BME280;61348;53.392;-6.248;2023-08-17T02:25:55;101367.00;;;14.21;91.06
43707;BME280;61348;53.392;-6.248;2023-08-17T02:28:22;101362.59;;;14.20;91.09
43707;BME280;61348;53.392;-6.248;2023-08-17T02:30:55;101367.72;;;14.18;91.13
43707;BME280;61348;53.392;-6.248;2023-08-17T02:33:22;101367.72;;;14.18;91.56
43707;BME280;61348;53.392;-6.248;2023-08-17T02:35:49;101357.72;;;14.17;91.54
43707;BME280;61348;53.392;-6.248;2023-08-17T02:38:16;101361.69;;;14.16;91.77
43707;BME280;61348;53.392;-6.248;2023-08-17T02:40:43;101359.25;;;14.14;91.83
43707;BME280;61348;53.392;-6.248;2023-08-17T02:43:10;101362.41;;;14.13;92.01
43707;BME280;61348;53.392;-6.248;2023-08-17T02:45:37;101362.41;;;14.13;91.87
43707;BME280;61348;53.392;-6.248;2023-08-17T02:48:04;101364.72;;;14.11;92.17
43707;BME280;61348;53.392;-6.248;2023-08-17T02:50:31;101357.53;;;14.10;92.33
43707;BME280;61348;53.392;-6.248;2023-08-17T02:52:58;101351.16;;;14.09;92.34
43707;BME280;61348;53.392;-6.248;2023-08-17T02:55:26;101355.91;;;14.09;92.37
43707;BME280;61348;53.392;-6.248;2023-08-17T02:57:53;101353.47;;;14.07;92.51
43707;BME280;61348;53.392;-6.248;2023-08-17T03:02:55;101346.28;;;14.06;92.74
43707;BME280;61348;53.392;-6.248;2023-08-17T03:05:22;101339.13;;;14.05;92.73
43707;BME280;61348;53.392;-6.248;2023-08-17T03:07:50;101337.84;;;14.02;92.85
43707;BME280;61348;53.392;-6.248;2023-08-17T03:10:17;101331.09;;;14.03;93.19
43707;BME280;61348;53.392;-6.248;2023-08-17T03:12:44;101329.50;;;14.02;93.26
43707;BME280;61348;53.392;-6.248;2023-08-17T03:15:11;101326.72;;;14.02;93.36
43707;BME280;61348;53.392;-6.248;2023-08-17T03:17:38;101331.09;;;14.03;93.56
43707;BME280;61348;53.392;-6.248;2023-08-17T03:20:07;101313.59;;;14.03;93.94
43707;BME280;61348;53.392;-6.248;2023-08-17T03:22:34;101312.78;;;14.02;93.92
43707;BME280;61348;53.392;-6.248;2023-08-17T03:25:01;101305.59;;;14.01;94.18
43707;BME280;61348;53.392;-6.248;2023-08-17T03:27:29;101303.97;;;14.00;94.40
43707;BME280;61348;53.392;-6.248;2023-08-17T03:29:56;101310.72;;;13.99;94.84
43707;BME280;61348;53.392;-6.248;2023-08-17T03:32:23;101310.72;;;13.99;94.95
43707;BME280;61348;53.392;-6.248;2023-08-17T03:34:50;101307.22;;;14.02;95.03
43707;BME280;61348;53.392;-6.248;2023-08-17T03:37:17;101301.66;;;14.02;95.23
43707;BME280;61348;53.392;-6.248;2023-08-17T03:39:44;101305.69;;;14.05;95.33
43707;BME280;61348;53.392;-6.248;2023-08-17T03:42:11;101309.31;;;14.06;95.55
43707;BME280;61348;53.392;-6.248;2023-08-17T03:44:37;101295.81;;;14.08;95.68
43707;BME280;61348;53.392;-6.248;2023-08-17T03:47:05;101301.41;;;14.08;95.75
43707;BME280;61348;53.392;-6.248;2023-08-17T03:49:31;101295.81;;;14.08;95.88
43707;BME280;61348;53.392;-6.248;2023-08-17T03:51:58;101303.38;;;14.07;95.96
43707;BME280;61348;53.392;-6.248;2023-08-17T03:54:25;101289.81;;;14.06;96.19
43707;BME280;61348;53.392;-6.248;2023-08-17T03:56:52;101286.56;;;14.03;96.34
43707;BME280;61348;53.392;-6.248;2023-08-17T03:59:19;101292.13;;;14.03;96.22
43707;BME280;61348;53.392;-6.248;2023-08-17T04:01:46;101286.91;;;14.02;96.27
43707;BME280;61348;53.392;-6.248;2023-08-17T04:04:13;101293.63;;;14.01;96.37
43707;BME280;61348;53.392;-6.248;2023-08-17T04:06:40;101299.13;;;13.97;96.25
43707;BME280;61348;53.392;-6.248;2023-08-17T04:09:07;101304.69;;;13.97;96.54
43707;BME280;61348;53.392;-6.248;2023-08-17T04:11:37;101305.84;;;13.96;96.22
43707;BME280;61348;53.392;-6.248;2023-08-17T04:14:04;101295.41;;;13.93;96.20
43707;BME280;61348;53.392;-6.248;2023-08-17T04:16:33;101300.53;;;13.91;96.28
43707;BME280;61348;53.392;-6.248;2023-08-17T04:19:00;101299.59;;;13.87;96.53
43707;BME280;61348;53.392;-6.248;2023-08-17T04:21:27;101294.78;;;13.84;96.34
43707;BME280;61348;53.392;-6.248;2023-08-17T04:23:55;101296.63;;;13.80;96.42
43707;BME280;61348;53.392;-6.248;2023-08-17T04:26:22;101295.72;;;13.76;96.84
43707;BME280;61348;53.392;-6.248;2023-08-17T04:28:50;101295.72;;;13.76;96.79
43707;BME280;61348;53.392;-6.248;2023-08-17T04:31:17;101289.69;;;13.74;97.20
43707;BME280;61348;53.392;-6.248;2023-08-17T04:33:44;101287.38;;;13.76;97.42
43707;BME280;61348;53.392;-6.248;2023-08-17T04:36:10;101284.59;;;13.76;97.46
43707;BME280;61348;53.392;-6.248;2023-08-17T04:38:37;101282.59;;;13.77;97.75
43707;BME280;61348;53.392;-6.248;2023-08-17T04:41:04;101278.66;;;13.78;97.95
43707;BME280;61348;53.392;-6.248;2023-08-17T04:43:31;101278.31;;;13.79;98.00
43707;BME280;61348;53.392;-6.248;2023-08-17T04:45:58;101280.31;;;13.79;98.37
43707;BME280;61348;53.392;-6.248;2023-08-17T04:48:25;101277.50;;;13.79;98.24
43707;BME280;61348;53.392;-6.248;2023-08-17T04:50:52;101279.47;;;13.78;98.60
43707;BME280;61348;53.392;-6.248;2023-08-17T04:53:19;101271.59;;;13.80;98.55
43707;BME280;61348;53.392;-6.248;2023-08-17T04:55:45;101277.59;;;13.82;98.66
43707;BME280;61348;53.392;-6.248;2023-08-17T04:58:12;101277.16;;;13.80;98.75
43707;BME280;61348;53.392;-6.248;2023-08-17T05:00:39;101271.59;;;13.80;98.68
43707;BME280;61348;53.392;-6.248;2023-08-17T05:03:06;101258.81;;;13.79;98.84
43707;BME280;61348;53.392;-6.248;2023-08-17T05:05:42;101264.75;;;13.78;98.66
43707;BME280;61348;53.392;-6.248;2023-08-17T05:08:09;101260.34;;;13.77;98.90
43707;BME280;61348;53.392;-6.248;2023-08-17T05:10:36;101254.78;;;13.77;99.01
43707;BME280;61348;53.392;-6.248;2023-08-17T05:13:03;101247.25;;;13.77;99.10
43707;BME280;61348;53.392;-6.248;2023-08-17T05:15:30;101250.03;;;13.77;99.09
43707;BME280;61348;53.392;-6.248;2023-08-17T05:17:57;101236.09;;;13.77;99.25
43707;BME280;61348;53.392;-6.248;2023-08-17T05:20:23;101237.28;;;13.76;99.31
43707;BME280;61348;53.392;-6.248;2023-08-17T05:22:50;101237.28;;;13.76;99.59
43707;BME280;61348;53.392;-6.248;2023-08-17T05:25:17;101234.94;;;13.78;99.57
43707;BME280;61348;53.392;-6.248;2023-08-17T05:27:47;101237.75;;;13.78;99.40
43707;BME280;61348;53.392;-6.248;2023-08-17T05:30:16;101246.09;;;13.78;99.69
43707;BME280;61348;53.392;-6.248;2023-08-17T05:32:42;101240.53;;;13.78;99.85
43707;BME280;61348;53.392;-6.248;2023-08-17T05:35:11;101239.81;;;13.81;99.89
43707;BME280;61348;53.392;-6.248;2023-08-17T05:37:38;101241.16;;;13.87;100.00
43707;BME280;61348;53.392;-6.248;2023-08-17T05:40:05;101243.72;;;13.92;100.00
43707;BME280;61348;53.392;-6.248;2023-08-17T05:42:32;101238.59;;;13.94;100.00
43707;BME280;61348;53.392;-6.248;2023-08-17T05:44:59;101239.16;;;14.00;100.00
43707;BME280;61348;53.392;-6.248;2023-08-17T05:47:28;101234.13;;;14.06;100.00
43707;BME280;61348;53.392;-6.248;2023-08-17T05:49:55;101235.84;;;14.10;100.00
43707;BME280;61348;53.392;-6.248;2023-08-17T05:52:22;101234.75;;;14.15;100.00
43707;BME280;61348;53.392;-6.248;2023-08-17T05:54:49;101238.47;;;14.19;100.00
43707;BME280;61348;53.392;-6.248;2023-08-17T05:57:16;101229.03;;;14.23;100.00
43707;BME280;61348;53.392;-6.248;2023-08-17T05:59:42;101229.56;;;14.29;100.00
43707;BME280;61348;53.392;-6.248;2023-08-17T06:02:09;101224.56;;;14.34;100.00
43707;BME280;61348;53.392;-6.248;2023-08-17T06:04:37;101233.47;;;14.40;100.00
43707;BME280;61348;53.392;-6.248;2023-08-17T06:07:03;101229.59;;;14.44;100.00
43707;BME280;61348;53.392;-6.248;2023-08-17T06:09:30;101237.31;;;14.51;100.00
43707;BME280;61348;53.392;-6.248;2023-08-17T06:11:57;101235.44;;;14.55;100.00
43707;BME280;61348;53.392;-6.248;2023-08-17T06:14:24;101224.03;;;14.60;100.00
43707;BME280;61348;53.392;-6.248;2023-08-17T06:16:51;101229.31;;;14.65;100.00
43707;BME280;61348;53.392;-6.248;2023-08-17T06:19:18;101227.06;;;14.71;100.00
43707;BME280;61348;53.392;-6.248;2023-08-17T06:21:45;101222.38;;;14.75;100.00
43707;BME280;61348;53.392;-6.248;2023-08-17T06:24:12;101221.31;;;14.79;100.00
43707;BME280;61348;53.392;-6.248;2023-08-17T06:26:38;101226.59;;;14.84;100.00
43707;BME280;61348;53.392;-6.248;2023-08-17T06:29:05;101221.91;;;14.88;100.00
43707;BME280;61348;53.392;-6.248;2023-08-17T06:31:32;101220.03;;;14.92;100.00
43707;BME280;61348;53.392;-6.248;2023-08-17T06:33:59;101218.09;;;14.96;100.00
43707;BME280;61348;53.392;-6.248;2023-08-17T06:36:31;101212.25;;;15.01;100.00
43707;BME280;61348;53.392;-6.248;2023-08-17T06:38:59;101208.38;;;15.06;100.00
43707;BME280;61348;53.392;-6.248;2023-08-17T06:41:26;101203.34;;;15.11;100.00
43707;BME280;61348;53.392;-6.248;2023-08-17T06:43:53;101207.91;;;15.19;100.00
43707;BME280;61348;53.392;-6.248;2023-08-17T06:46:20;101214.34;;;15.23;100.00
43707;BME280;61348;53.392;-6.248;2023-08-17T06:48:47;101208.47;;;15.29;100.00
43707;BME280;61348;53.392;-6.248;2023-08-17T06:51:15;101208.19;;;15.34;100.00
43707;BME280;61348;53.392;-6.248;2023-08-17T06:53:41;101214.66;;;15.38;100.00
43707;BME280;61348;53.392;-6.248;2023-08-17T06:56:09;101204.75;;;15.40;100.00
43707;BME280;61348;53.392;-6.248;2023-08-17T06:58:36;101205.63;;;15.44;100.00
43707;BME280;61348;53.392;-6.248;2023-08-17T07:01:03;101207.38;;;15.49;100.00
43707;BME280;61348;53.392;-6.248;2023-08-17T07:03:30;101210.59;;;15.51;100.00
43707;BME280;61348;53.392;-6.248;2023-08-17T07:05:56;101197.50;;;15.55;100.00
43707;BME280;61348;53.392;-6.248;2023-08-17T07:08:24;101194.78;;;15.58;100.00
43707;BME280;61348;53.392;-6.248;2023-08-17T07:10:51;101192.88;;;15.62;100.00
43707;BME280;61348;53.392;-6.248;2023-08-17T07:13:17;101187.00;;;15.67;100.00
43707;BME280;61348;53.392;-6.248;2023-08-17T07:15:44;101183.97;;;15.76;100.00
43707;BME280;61348;53.392;-6.248;2023-08-17T07:18:11;101182.13;;;15.83;100.00
43707;BME280;61348;53.392;-6.248;2023-08-17T07:20:38;101183.09;;;15.91;100.00
43707;BME280;61348;53.392;-6.248;2023-08-17T07:23:05;101180.41;;;15.98;100.00
43707;BME280;61348;53.392;-6.248;2023-08-17T07:25:32;101180.19;;;16.07;100.00
43707;BME280;61348;53.392;-6.248;2023-08-17T07:27:59;101179.91;;;16.15;100.00
43707;BME280;61348;53.392;-6.248;2023-08-17T07:30:26;101184.81;;;16.22;100.00
43707;BME280;61348;53.392;-6.248;2023-08-17T07:32:54;101192.16;;;16.30;100.00
43707;BME280;61348;53.392;-6.248;2023-08-17T07:35:21;101196.63;;;16.34;100.00
43707;BME280;61348;53.392;-6.248;2023-08-17T07:37:48;101188.22;;;16.34;100.00
43707;BME280;61348;53.392;-6.248;2023-08-17T07:40:33;101198.59;;;16.34;100.00
43707;BME280;61348;53.392;-6.248;2023-08-17T07:42:59;101187.50;;;16.37;100.00
43707;BME280;61348;53.392;-6.248;2023-08-17T07:45:28;101189.97;;;16.42;100.00
43707;BME280;61348;53.392;-6.248;2023-08-17T07:47:55;101187.59;;;16.44;100.00
43707;BME280;61348;53.392;-6.248;2023-08-17T07:50:22;101170.81;;;16.44;100.00
43707;BME280;61348;53.392;-6.248;2023-08-17T07:52:49;101173.19;;;16.42;100.00
43707;BME280;61348;53.392;-6.248;2023-08-17T07:55:15;101167.69;;;16.46;100.00
43707;BME280;61348;53.392;-6.248;2023-08-17T07:57:42;101178.91;;;16.50;100.00
43707;BME280;61348;53.392;-6.248;2023-08-17T08:00:10;101171.75;;;16.52;100.00
43707;BME280;61348;53.392;-6.248;2023-08-17T08:02:37;101165.09;;;16.57;100.00
43707;BME280;61348;53.392;-6.248;2023-08-17T08:05:04;101166.34;;;16.63;100.00
43707;BME280;61348;53.392;-6.248;2023-08-17T08:07:31;101165.72;;;16.73;100.00
43707;BME280;61348;53.392;-6.248;2023-08-17T08:09:58;101172.72;;;16.86;100.00
43707;BME280;61348;53.392;-6.248;2023-08-17T08:12:25;101170.91;;;17.00;100.00
43707;BME280;61348;53.392;-6.248;2023-08-17T08:14:52;101168.00;;;17.20;100.00
43707;BME280;61348;53.392;-6.248;2023-08-17T08:17:19;101163.84;;;17.40;100.00
43707;BME280;61348;53.392;-6.248;2023-08-17T08:19:46;101162.94;;;17.62;100.00
43707;BME280;61348;53.392;-6.248;2023-08-17T08:22:13;101156.06;;;17.89;100.00
43707;BME280;61348;53.392;-6.248;2023-08-17T08:24:40;101154.69;;;18.16;100.00
43707;BME280;61348;53.392;-6.248;2023-08-17T08:27:10;101156.19;;;18.47;100.00
43707;BME280;61348;53.392;-6.248;2023-08-17T08:29:37;101155.94;;;18.66;100.00
43707;BME280;61348;53.392;-6.248;2023-08-17T08:32:04;101156.94;;;18.99;100.00
43707;BME280;61348;53.392;-6.248;2023-08-17T08:34:30;101162.88;;;19.66;100.00
43707;BME280;61348;53.392;-6.248;2023-08-17T08:36:58;101166.63;;;20.65;100.00
43707;BME280;61348;53.392;-6.248;2023-08-17T08:39:25;101162.72;;;21.67;100.00
43707;BME280;61348;53.392;-6.248;2023-08-17T08:41:53;101170.22;;;22.50;97.73
43707;BME280;61348;53.392;-6.248;2023-08-17T08:44:20;101162.94;;;23.30;92.26
43707;BME280;61348;53.392;-6.248;2023-08-17T08:46:48;101169.41;;;23.95;86.15
43707;BME280;61348;53.392;-6.248;2023-08-17T08:49:20;101184.72;;;24.51;83.28
43707;BME280;61348;53.392;-6.248;2023-08-17T08:51:51;101185.38;;;25.05;77.61
43707;BME280;61348;53.392;-6.248;2023-08-17T08:54:23;101186.97;;;25.49;75.42
43707;BME280;61348;53.392;-6.248;2023-08-17T08:56:57;101187.38;;;25.86;71.69
43707;BME280;61348;53.392;-6.248;2023-08-17T08:59:27;101180.09;;;26.21;67.94
43707;BME280;61348;53.392;-6.248;2023-08-17T09:01:58;101179.75;;;26.51;66.32
43707;BME280;61348;53.392;-6.248;2023-08-17T09:04:25;101180.97;;;26.67;63.54
43707;BME280;61348;53.392;-6.248;2023-08-17T09:06:53;101181.34;;;26.85;61.48
43707;BME280;61348;53.392;-6.248;2023-08-17T09:09:21;101186.75;;;26.95;60.29
43707;BME280;61348;53.392;-6.248;2023-08-17T09:11:55;101189.22;;;27.09;58.56
43707;BME280;61348;53.392;-6.248;2023-08-17T09:14:22;101186.97;;;27.17;57.83
43707;BME280;61348;53.392;-6.248;2023-08-17T09:16:49;101200.75;;;27.18;56.86
43707;BME280;61348;53.392;-6.248;2023-08-17T09:19:18;101189.97;;;27.26;55.76
43707;BME280;61348;53.392;-6.248;2023-08-17T09:21:45;101179.25;;;27.46;55.11
43707;BME280;61348;53.392;-6.248;2023-08-17T09:24:16;101180.97;;;27.56;54.49
43707;BME280;61348;53.392;-6.248;2023-08-17T09:26:43;101169.41;;;27.63;53.29
43707;BME280;61348;53.392;-6.248;2023-08-17T09:29:17;101158.38;;;27.65;53.87
43707;BME280;61348;53.392;-6.248;2023-08-17T09:31:45;101160.31;;;27.81;52.66
43707;BME280;61348;53.392;-6.248;2023-08-17T09:34:14;101156.41;;;28.04;51.94
43707;BME280;61348;53.392;-6.248;2023-08-17T09:36:42;101162.06;;;28.29;50.82
43707;BME280;61348;53.392;-6.248;2023-08-17T09:39:12;101162.63;;;28.36;49.89
43707;BME280;61348;53.392;-6.248;2023-08-17T09:41:41;101152.97;;;28.21;49.24
43707;BME280;61348;53.392;-6.248;2023-08-17T09:44:11;101142.44;;;27.80;49.46
43707;BME280;61348;53.392;-6.248;2023-08-17T09:46:38;101139.09;;;27.15;50.38
43707;BME280;61348;53.392;-6.248;2023-08-17T09:49:05;101141.09;;;27.02;50.75
43707;BME280;61348;53.392;-6.248;2023-08-17T09:51:32;101139.22;;;27.25;50.04
43707;BME280;61348;53.392;-6.248;2023-08-17T09:53:59;101134.78;;;27.52;49.26
43707;BME280;61348;53.392;-6.248;2023-08-17T09:56:26;101123.88;;;27.51;48.72
43707;BME280;61348;53.392;-6.248;2023-08-17T09:58:55;101135.75;;;27.04;49.03
43707;BME280;61348;53.392;-6.248;2023-08-17T10:01:21;101130.66;;;26.67;49.62
43707;BME280;61348;53.392;-6.248;2023-08-17T10:03:49;101127.47;;;26.65;49.52
43707;BME280;61348;53.392;-6.248;2023-08-17T10:06:20;101128.00;;;26.76;49.38
43707;BME280;61348;53.392;-6.248;2023-08-17T10:08:54;101128.31;;;26.94;48.74
43707;BME280;61348;53.392;-6.248;2023-08-17T10:11:26;101124.91;;;26.71;48.44
43707;BME280;61348;53.392;-6.248;2023-08-17T10:14:00;101132.78;;;25.98;49.41
43707;BME280;61348;53.392;-6.248;2023-08-17T10:17:07;101113.75;;;25.24;50.93
43707;BME280;61348;53.392;-6.248;2023-08-17T10:19:58;101104.69;;;25.52;50.35
43707;BME280;61348;53.392;-6.248;2023-08-17T10:22:31;101114.16;;;25.81;50.16
43707;BME280;61348;53.392;-6.248;2023-08-17T10:25:00;101109.22;;;26.18;49.67
43707;BME280;61348;53.392;-6.248;2023-08-17T10:27:28;101113.84;;;26.44;48.92
43707;BME280;61348;53.392;-6.248;2023-08-17T10:29:56;101110.91;;;26.47;48.92
43707;BME280;61348;53.392;-6.248;2023-08-17T10:32:23;101103.72;;;26.27;49.47
43707;BME280;61348;53.392;-6.248;2023-08-17T10:34:52;101108.31;;;26.05;49.93
43707;BME280;61348;53.392;-6.248;2023-08-17T10:37:20;101090.09;;;25.70;50.35
43707;BME280;61348;53.392;-6.248;2023-08-17T10:39:48;101095.16;;;25.23;50.80
43707;BME280;61348;53.392;-6.248;2023-08-17T10:42:29;101097.38;;;24.72;51.92
43707;BME280;61348;53.392;-6.248;2023-08-17T10:44:57;101103.06;;;24.26;52.62
43707;BME280;61348;53.392;-6.248;2023-08-17T10:47:26;101090.41;;;23.81;54.17
43707;BME280;61348;53.392;-6.248;2023-08-17T10:49:58;101100.38;;;23.62;54.76
43707;BME280;61348;53.392;-6.248;2023-08-17T10:52:31;101092.72;;;23.62;55.45
43707;BME280;61348;53.392;-6.248;2023-08-17T10:55:04;101090.25;;;23.91;54.77
43707;BME280;61348;53.392;-6.248;2023-08-17T10:57:39;101090.53;;;23.74;55.41
43707;BME280;61348;53.392;-6.248;2023-08-17T11:00:17;101088.88;;;23.49;56.08
43707;BME280;61348;53.392;-6.248;2023-08-17T11:02:58;101082.66;;;23.28;56.66
43707;BME280;61348;53.392;-6.248;2023-08-17T11:05:44;101073.50;;;23.20;57.41
43707;BME280;61348;53.392;-6.248;2023-08-17T11:08:33;101076.41;;;23.13;57.70
43707;BME280;61348;53.392;-6.248;2023-08-17T11:11:10;101084.59;;;23.04;58.13
43707;BME280;61348;53.392;-6.248;2023-08-17T11:13:45;101083.53;;;22.91;58.48
43707;BME280;61348;53.392;-6.248;2023-08-17T11:16:14;101085.38;;;22.71;59.15
43707;BME280;61348;53.392;-6.248;2023-08-17T11:18:43;101084.03;;;22.41;59.73
43707;BME280;61348;53.392;-6.248;2023-08-17T11:21:11;101086.16;;;22.30;60.22
43707;BME280;61348;53.392;-6.248;2023-08-17T11:23:37;101080.97;;;22.25;60.75
43707;BME280;61348;53.392;-6.248;2023-08-17T11:26:04;101084.94;;;22.31;60.92
43707;BME280;61348;53.392;-6.248;2023-08-17T11:28:32;101081.59;;;22.43;60.93
43707;BME280;61348;53.392;-6.248;2023-08-17T11:31:12;101079.22;;;22.42;61.14
43707;BME280;61348;53.392;-6.248;2023-08-17T11:33:40;101090.50;;;22.42;61.52
43707;BME280;61348;53.392;-6.248;2023-08-17T11:36:08;101082.44;;;22.40;61.62
43707;BME280;61348;53.392;-6.248;2023-08-17T11:38:37;101077.63;;;22.37;62.01
43707;BME280;61348;53.392;-6.248;2023-08-17T11:41:05;101083.22;;;22.44;61.78
43707;BME280;61348;53.392;-6.248;2023-08-17T11:43:33;101081.94;;;22.49;61.91
43707;BME280;61348;53.392;-6.248;2023-08-17T11:46:01;101079.94;;;22.50;61.77
43707;BME280;61348;53.392;-6.248;2023-08-17T11:48:28;101087.97;;;22.51;62.27
43707;BME280;61348;53.392;-6.248;2023-08-17T11:51:01;101078.31;;;22.49;61.84
43707;BME280;61348;53.392;-6.248;2023-08-17T11:53:37;101074.34;;;22.42;61.53
43707;BME280;61348;53.392;-6.248;2023-08-17T11:56:06;101086.59;;;22.29;61.62
43707;BME280;61348;53.392;-6.248;2023-08-17T11:58:43;101083.53;;;22.06;61.61
43707;BME280;61348;53.392;-6.248;2023-08-17T12:01:12;101068.38;;;21.89;61.70
43707;BME280;61348;53.392;-6.248;2023-08-17T12:03:40;101067.25;;;21.76;61.92
43707;BME280;61348;53.392;-6.248;2023-08-17T12:06:09;101061.94;;;21.85;62.11
43707;BME280;61348;53.392;-6.248;2023-08-17T12:08:36;101061.06;;;21.95;62.34
43707;BME280;61348;53.392;-6.248;2023-08-17T12:11:03;101065.78;;;22.12;62.46
43707;BME280;61348;53.392;-6.248;2023-08-17T12:13:32;101070.50;;;22.22;62.07
43707;BME280;61348;53.392;-6.248;2023-08-17T12:16:02;101057.75;;;22.07;62.00
43707;BME280;61348;53.392;-6.248;2023-08-17T12:18:35;101052.97;;;22.01;62.39
43707;BME280;61348;53.392;-6.248;2023-08-17T12:21:03;101056.16;;;22.06;62.42
43707;BME280;61348;53.392;-6.248;2023-08-17T12:23:32;101056.94;;;22.10;62.48
43707;BME280;61348;53.392;-6.248;2023-08-17T12:25:59;101065.94;;;21.91;62.57
43707;BME280;61348;53.392;-6.248;2023-08-17T12:28:26;101067.59;;;21.89;62.92
43707;BME280;61348;53.392;-6.248;2023-08-17T12:31:00;101053.84;;;21.94;62.94
43707;BME280;61348;53.392;-6.248;2023-08-17T12:33:28;101060.63;;;22.00;63.04
43707;BME280;61348;53.392;-6.248;2023-08-17T12:35:55;101068.31;;;21.96;63.26
43707;BME280;61348;53.392;-6.248;2023-08-17T12:38:24;101060.38;;;21.80;63.02
43707;BME280;61348;53.392;-6.248;2023-08-17T12:40:52;101055.63;;;21.67;63.45
43707;BME280;61348;53.392;-6.248;2023-08-17T12:43:19;101057.31;;;21.54;63.31
43707;BME280;61348;53.392;-6.248;2023-08-17T12:45:45;101050.13;;;21.46;63.66
43707;BME280;61348;53.392;-6.248;2023-08-17T12:48:12;101049.31;;;21.49;64.16